sensor_id;sensor_type;location;lat;lon;timestamp;P1;durP1;ratioP1;P2;durP2;ratioP2
65279;SDS011;51878;55.748;48.742;2023-12-20T00:00:58;0.45;;;0.45;;
65279;SDS011;51878;55.748;48.742;2023-12-20T00:06:01;0.30;;;0.30;;
65279;SDS011;51878;55.748;48.742;2023-12-20T00:11:03;0.50;;;0.50;;
65279;SDS011;51878;55.748;48.742;2023-12-20T00:16:05;0.40;;;0.40;;
65279;SDS011;51878;55.748;48.742;2023-12-20T00:21:08;0.47;;;0.47;;
65279;SDS011;51878;55.748;48.742;2023-12-20T00:26:10;0.50;;;0.50;;
65279;SDS011;51878;55.748;48.742;2023-12-20T00:31:12;3.20;;;0.68;;
65279;SDS011;51878;55.748;48.742;2023-12-20T00:36:15;0.68;;;0.68;;
65279;SDS011;51878;55.748;48.742;2023-12-20T00:41:18;0.50;;;0.50;;
65279;SDS011;51878;55.748;48.742;2023-12-20T00:46:20;0.60;;;0.60;;
65279;SDS011;51878;55.748;48.742;2023-12-20T00:51:22;0.60;;;0.60;;
65279;SDS011;51878;55.748;48.742;2023-12-20T00:56:24;0.93;;;0.80;;
65279;SDS011;51878;55.748;48.742;2023-12-20T01:01:27;0.50;;;0.50;;
65279;SDS011;51878;55.748;48.742;2023-12-20T01:06:29;0.88;;;0.88;;
65279;SDS011;51878;55.748;48.742;2023-12-20T01:11:31;1.08;;;1.08;;
65279;SDS011;51878;55.748;48.742;2023-12-20T01:16:33;1.17;;;1.08;;
65279;SDS011;51878;55.748;48.742;2023-12-20T01:21:35;0.82;;;0.82;;
65279;SDS011;51878;55.748;48.742;2023-12-20T01:26:38;1.70;;;1.48;;
65279;SDS011;51878;55.748;48.742;2023-12-20T01:31:40;0.77;;;0.77;;
65279;SDS011;51878;55.748;48.742;2023-12-20T01:36:42;0.73;;;0.73;;
65279;SDS011;51878;55.748;48.742;2023-12-20T01:41:45;2.70;;;1.70;;
65279;SDS011;51878;55.748;48.742;2023-12-20T01:46:47;49.55;;;3.00;;
65279;SDS011;51878;55.748;48.742;2023-12-20T01:51:50;40.42;;;2.40;;
65279;SDS011;51878;55.748;48.742;2023-12-20T01:56:52;102.88;;;4.13;;
65279;SDS011;51878;55.748;48.742;2023-12-20T02:01:55;45.03;;;2.85;;
65279;SDS011;51878;55.748;48.742;2023-12-20T02:06:57;59.03;;;2.72;;
65279;SDS011;51878;55.748;48.742;2023-12-20T02:12:01;140.45;;;3.90;;
65279;SDS011;51878;55.748;48.742;2023-12-20T02:17:03;39.60;;;1.40;;
65279;SDS011;51878;55.748;48.742;2023-12-20T02:22:06;246.88;;;6.55;;
65279;SDS011;51878;55.748;48.742;2023-12-20T02:27:12;96.50;;;2.72;;
65279;SDS011;51878;55.748;48.742;2023-12-20T02:32:14;195.18;;;5.75;;
65279;SDS011;51878;55.748;48.742;2023-12-20T02:37:18;287.27;;;7.38;;
65279;SDS011;51878;55.748;48.742;2023-12-20T02:42:20;42.40;;;2.17;;
65279;SDS011;51878;55.748;48.742;2023-12-20T02:47:22;213.05;;;6.25;;
65279;SDS011;51878;55.748;48.742;2023-12-20T02:52:24;99.38;;;4.82;;
65279;SDS011;51878;55.748;48.742;2023-12-20T02:57:27;59.00;;;2.80;;
65279;SDS011;51878;55.748;48.742;2023-12-20T03:02:29;21.35;;;2.30;;
65279;SDS011;51878;55.748;48.742;2023-12-20T03:07:31;53.85;;;2.25;;
65279;SDS011;51878;55.748;48.742;2023-12-20T03:12:34;208.95;;;6.63;;
65279;SDS011;51878;55.748;48.742;2023-12-20T03:17:36;42.53;;;1.92;;
65279;SDS011;51878;55.748;48.742;2023-12-20T03:22:38;147.82;;;5.22;;
65279;SDS011;51878;55.748;48.742;2023-12-20T03:27:40;72.55;;;3.70;;
65279;SDS011;51878;55.748;48.742;2023-12-20T03:32:43;183.68;;;7.53;;
65279;SDS011;51878;55.748;48.742;2023-12-20T03:37:45;91.10;;;6.28;;
65279;SDS011;51878;55.748;48.742;2023-12-20T03:42:48;8.40;;;1.42;;
65279;SDS011;51878;55.748;48.742;2023-12-20T03:47:50;10.18;;;1.48;;
65279;SDS011;51878;55.748;48.742;2023-12-20T03:52:56;1.45;;;1.35;;
65279;SDS011;51878;55.748;48.742;2023-12-20T03:57:59;1.40;;;1.30;;
65279;SDS011;51878;55.748;48.742;2023-12-20T04:03:01;1.70;;;1.60;;
65279;SDS011;51878;55.748;48.742;2023-12-20T04:08:03;4.35;;;1.70;;
65279;SDS011;51878;55.748;48.742;2023-12-20T04:13:06;1.55;;;1.45;;
65279;SDS011;51878;55.748;48.742;2023-12-20T04:18:08;2.40;;;2.15;;
65279;SDS011;51878;55.748;48.742;2023-12-20T04:23:10;0.88;;;0.88;;
65279;SDS011;51878;55.748;48.742;2023-12-20T04:28:13;1.27;;;1.23;;
65279;SDS011;51878;55.748;48.742;2023-12-20T04:33:15;1.55;;;1.45;;
65279;SDS011;51878;55.748;48.742;2023-12-20T04:38:17;1.25;;;1.20;;
65279;SDS011;51878;55.748;48.742;2023-12-20T04:43:19;0.93;;;0.93;;
65279;SDS011;51878;55.748;48.742;2023-12-20T04:48:21;5.57;;;1.73;;
65279;SDS011;51878;55.748;48.742;2023-12-20T04:53:24;5.55;;;1.52;;
65279;SDS011;51878;55.748;48.742;2023-12-20T04:58:26;5.85;;;2.20;;
65279;SDS011;51878;55.748;48.742;2023-12-20T05:03:28;3.83;;;1.27;;
65279;SDS011;51878;55.748;48.742;2023-12-20T05:08:30;1.25;;;1.15;;
65279;SDS011;51878;55.748;48.742;2023-12-20T05:13:33;0.90;;;0.90;;
65279;SDS011;51878;55.748;48.742;2023-12-20T05:18:42;1.23;;;0.90;;
65279;SDS011;51878;55.748;48.742;2023-12-20T05:23:45;1.48;;;1.38;;
65279;SDS011;51878;55.748;48.742;2023-12-20T05:28:47;1.75;;;1.65;;
65279;SDS011;51878;55.748;48.742;2023-12-20T05:33:49;4.65;;;2.20;;
65279;SDS011;51878;55.748;48.742;2023-12-20T05:38:51;3.28;;;1.52;;
65279;SDS011;51878;55.748;48.742;2023-12-20T05:43:54;1.35;;;1.25;;
65279;SDS011;51878;55.748;48.742;2023-12-20T05:48:57;1.85;;;1.75;;
65279;SDS011;51878;55.748;48.742;2023-12-20T05:53:59;2.05;;;1.85;;
65279;SDS011;51878;55.748;48.742;2023-12-20T05:59:01;1.83;;;1.73;;
65279;SDS011;51878;55.748;48.742;2023-12-20T06:04:04;1.83;;;1.73;;
65279;SDS011;51878;55.748;48.742;2023-12-20T06:09:06;1.90;;;1.67;;
65279;SDS011;51878;55.748;48.742;2023-12-20T06:14:08;1.42;;;1.20;;
65279;SDS011;51878;55.748;48.742;2023-12-20T06:19:11;1.67;;;1.58;;
65279;SDS011;51878;55.748;48.742;2023-12-20T06:24:13;1.30;;;1.20;;
65279;SDS011;51878;55.748;48.742;2023-12-20T06:29:15;1.52;;;1.42;;
65279;SDS011;51878;55.748;48.742;2023-12-20T06:34:18;1.05;;;0.95;;
65279;SDS011;51878;55.748;48.742;2023-12-20T06:39:20;2.78;;;2.00;;
65279;SDS011;51878;55.748;48.742;2023-12-20T06:44:22;2.78;;;2.10;;
65279;SDS011;51878;55.748;48.742;2023-12-20T06:49:24;2.92;;;2.28;;
65279;SDS011;51878;55.748;48.742;2023-12-20T06:54:27;3.80;;;1.63;;
65279;SDS011;51878;55.748;48.742;2023-12-20T06:59:29;1.63;;;1.52;;
65279;SDS011;51878;55.748;48.742;2023-12-20T07:04:31;3.95;;;1.58;;
65279;SDS011;51878;55.748;48.742;2023-12-20T07:09:34;1.20;;;1.20;;
65279;SDS011;51878;55.748;48.742;2023-12-20T07:14:36;1.45;;;1.35;;
65279;SDS011;51878;55.748;48.742;2023-12-20T07:19:38;2.42;;;1.90;;
65279;SDS011;51878;55.748;48.742;2023-12-20T07:24:41;1.73;;;1.63;;
65279;SDS011;51878;55.748;48.742;2023-12-20T07:29:43;1.58;;;1.48;;
65279;SDS011;51878;55.748;48.742;2023-12-20T07:34:45;1.52;;;1.20;;
65279;SDS011;51878;55.748;48.742;2023-12-20T07:39:47;0.93;;;0.93;;
65279;SDS011;51878;55.748;48.742;2023-12-20T07:44:50;1.63;;;1.52;;
65279;SDS011;51878;55.748;48.742;2023-12-20T07:49:52;2.63;;;1.60;;
65279;SDS011;51878;55.748;48.742;2023-12-20T07:54:54;1.75;;;1.65;;
65279;SDS011;51878;55.748;48.742;2023-12-20T07:59:57;1.25;;;1.15;;
65279;SDS011;51878;55.748;48.742;2023-12-20T08:04:59;1.23;;;1.20;;
65279;SDS011;51878;55.748;48.742;2023-12-20T08:10:01;3.95;;;2.15;;
65279;SDS011;51878;55.748;48.742;2023-12-20T08:15:04;3.40;;;2.10;;
65279;SDS011;51878;55.748;48.742;2023-12-20T08:20:07;1.98;;;1.88;;
65279;SDS011;51878;55.748;48.742;2023-12-20T08:25:11;2.53;;;1.90;;
65279;SDS011;51878;55.748;48.742;2023-12-20T08:30:13;1.92;;;1.70;;
65279;SDS011;51878;55.748;48.742;2023-12-20T08:35:16;1.40;;;1.30;;
65279;SDS011;51878;55.748;48.742;2023-12-20T08:40:19;1.58;;;1.48;;
65279;SDS011;51878;55.748;48.742;2023-12-20T08:45:22;1.58;;;1.48;;
65279;SDS011;51878;55.748;48.742;2023-12-20T08:50:24;2.05;;;1.42;;
65279;SDS011;51878;55.748;48.742;2023-12-20T08:55:26;1.85;;;1.75;;
65279;SDS011;51878;55.748;48.742;2023-12-20T09:00:30;1.48;;;1.38;;
65279;SDS011;51878;55.748;48.742;2023-12-20T09:05:33;1.80;;;1.70;;
65279;SDS011;51878;55.748;48.742;2023-12-20T09:10:35;1.10;;;1.10;;
65279;SDS011;51878;55.748;48.742;2023-12-20T09:15:37;1.60;;;1.50;;
65279;SDS011;51878;55.748;48.742;2023-12-20T09:20:40;2.67;;;1.40;;
65279;SDS011;51878;55.748;48.742;2023-12-20T09:25:43;1.33;;;1.23;;
65279;SDS011;51878;55.748;48.742;2023-12-20T09:30:45;1.25;;;1.15;;
65279;SDS011;51878;55.748;48.742;2023-12-20T09:35:49;2.20;;;1.70;;
65279;SDS011;51878;55.748;48.742;2023-12-20T09:40:52;2.15;;;1.88;;
65279;SDS011;51878;55.748;48.742;2023-12-20T09:45:55;2.35;;;1.92;;
65279;SDS011;51878;55.748;48.742;2023-12-20T09:51:04;2.65;;;2.20;;
65279;SDS011;51878;55.748;48.742;2023-12-20T09:56:07;1.80;;;1.63;;
65279;SDS011;51878;55.748;48.742;2023-12-20T10:01:10;2.25;;;2.05;;
65279;SDS011;51878;55.748;48.742;2023-12-20T10:06:13;5.32;;;3.28;;
65279;SDS011;51878;55.748;48.742;2023-12-20T10:11:30;2.72;;;2.25;;
65279;SDS011;51878;55.748;48.742;2023-12-20T10:16:33;2.95;;;2.67;;
65279;SDS011;51878;55.748;48.742;2023-12-20T10:21:36;5.00;;;2.05;;
65279;SDS011;51878;55.748;48.742;2023-12-20T10:26:38;2.60;;;2.10;;
65279;SDS011;51878;55.748;48.742;2023-12-20T10:31:40;2.58;;;2.22;;
65279;SDS011;51878;55.748;48.742;2023-12-20T10:36:44;2.95;;;1.95;;
65279;SDS011;51878;55.748;48.742;2023-12-20T10:41:46;2.47;;;2.17;;
65279;SDS011;51878;55.748;48.742;2023-12-20T10:46:50;3.97;;;1.70;;
65279;SDS011;51878;55.748;48.742;2023-12-20T10:51:59;1.70;;;1.60;;
65279;SDS011;51878;55.748;48.742;2023-12-20T10:57:05;2.20;;;1.95;;
65279;SDS011;51878;55.748;48.742;2023-12-20T11:02:08;1.73;;;1.63;;
65279;SDS011;51878;55.748;48.742;2023-12-20T11:07:23;3.17;;;1.80;;
65279;SDS011;51878;55.748;48.742;2023-12-20T11:12:41;2.25;;;1.63;;
65279;SDS011;51878;55.748;48.742;2023-12-20T11:17:56;1.60;;;1.50;;
65279;SDS011;51878;55.748;48.742;2023-12-20T11:22:59;1.43;;;1.33;;
65279;SDS011;51878;55.748;48.742;2023-12-20T11:28:08;1.92;;;1.73;;
65279;SDS011;51878;55.748;48.742;2023-12-20T11:33:14;1.60;;;1.50;;
65279;SDS011;51878;55.748;48.742;2023-12-20T11:38:19;1.92;;;1.80;;
65279;SDS011;51878;55.748;48.742;2023-12-20T11:43:32;1.75;;;1.65;;
65279;SDS011;51878;55.748;48.742;2023-12-20T11:48:38;3.47;;;2.13;;
65279;SDS011;51878;55.748;48.742;2023-12-20T11:53:41;2.45;;;2.25;;
65279;SDS011;51878;55.748;48.742;2023-12-20T11:58:44;4.30;;;2.30;;
65279;SDS011;51878;55.748;48.742;2023-12-20T12:04:01;1.88;;;1.70;;
65279;SDS011;51878;55.748;48.742;2023-12-20T12:09:05;1.83;;;1.55;;
65279;SDS011;51878;55.748;48.742;2023-12-20T12:14:07;1.55;;;1.45;;
65279;SDS011;51878;55.748;48.742;2023-12-20T12:19:19;2.17;;;1.95;;
65279;SDS011;51878;55.748;48.742;2023-12-20T12:24:23;3.22;;;2.47;;
65279;SDS011;51878;55.748;48.742;2023-12-20T12:29:27;3.53;;;2.00;;
65279;SDS011;51878;55.748;48.742;2023-12-20T12:34:29;3.08;;;2.40;;
65279;SDS011;51878;55.748;48.742;2023-12-20T12:39:32;3.58;;;2.20;;
65279;SDS011;51878;55.748;48.742;2023-12-20T12:44:34;2.25;;;1.70;;
65279;SDS011;51878;55.748;48.742;2023-12-20T12:49:36;2.45;;;1.88;;
65279;SDS011;51878;55.748;48.742;2023-12-20T12:54:38;4.18;;;2.40;;
65279;SDS011;51878;55.748;48.742;2023-12-20T12:59:41;3.33;;;2.53;;
65279;SDS011;51878;55.748;48.742;2023-12-20T13:04:45;4.65;;;2.55;;
65279;SDS011;51878;55.748;48.742;2023-12-20T13:09:48;2.30;;;1.73;;
65279;SDS011;51878;55.748;48.742;2023-12-20T13:14:50;3.40;;;2.80;;
65279;SDS011;51878;55.748;48.742;2023-12-20T13:19:52;5.00;;;2.38;;
65279;SDS011;51878;55.748;48.742;2023-12-20T13:24:54;3.97;;;2.80;;
65279;SDS011;51878;55.748;48.742;2023-12-20T13:29:57;5.57;;;2.95;;
65279;SDS011;51878;55.748;48.742;2023-12-20T13:35:00;2.08;;;1.85;;
65279;SDS011;51878;55.748;48.742;2023-12-20T13:40:04;3.38;;;2.53;;
65279;SDS011;51878;55.748;48.742;2023-12-20T13:45:07;2.70;;;2.08;;
65279;SDS011;51878;55.748;48.742;2023-12-20T13:50:10;3.80;;;2.72;;
65279;SDS011;51878;55.748;48.742;2023-12-20T13:55:12;3.60;;;2.00;;
65279;SDS011;51878;55.748;48.742;2023-12-20T14:00:14;2.85;;;2.28;;
65279;SDS011;51878;55.748;48.742;2023-12-20T14:05:17;2.47;;;2.25;;
65279;SDS011;51878;55.748;48.742;2023-12-20T14:10:20;4.03;;;2.42;;
65279;SDS011;51878;55.748;48.742;2023-12-20T14:15:22;4.07;;;2.90;;
65279;SDS011;51878;55.748;48.742;2023-12-20T14:20:27;5.07;;;3.80;;
65279;SDS011;51878;55.748;48.742;2023-12-20T14:25:31;3.72;;;3.10;;
65279;SDS011;51878;55.748;48.742;2023-12-20T14:30:39;3.13;;;2.38;;
65279;SDS011;51878;55.748;48.742;2023-12-20T14:35:41;6.68;;;2.20;;
65279;SDS011;51878;55.748;48.742;2023-12-20T14:40:46;2.55;;;2.17;;
65279;SDS011;51878;55.748;48.742;2023-12-20T14:45:48;2.50;;;2.17;;
65279;SDS011;51878;55.748;48.742;2023-12-20T14:50:52;2.13;;;1.92;;
65279;SDS011;51878;55.748;48.742;2023-12-20T14:55:55;2.80;;;2.22;;
65279;SDS011;51878;55.748;48.742;2023-12-20T15:00:57;4.43;;;2.08;;
65279;SDS011;51878;55.748;48.742;2023-12-20T15:06:00;3.30;;;2.65;;
65279;SDS011;51878;55.748;48.742;2023-12-20T15:11:02;2.88;;;2.22;;
65279;SDS011;51878;55.748;48.742;2023-12-20T15:16:05;4.00;;;2.60;;
65279;SDS011;51878;55.748;48.742;2023-12-20T15:21:08;3.05;;;2.45;;
65279;SDS011;51878;55.748;48.742;2023-12-20T15:26:10;2.50;;;2.30;;
65279;SDS011;51878;55.748;48.742;2023-12-20T15:31:12;4.45;;;2.50;;
65279;SDS011;51878;55.748;48.742;2023-12-20T15:36:14;2.95;;;2.47;;
65279;SDS011;51878;55.748;48.742;2023-12-20T15:41:22;2.28;;;2.05;;
65279;SDS011;51878;55.748;48.742;2023-12-20T15:46:27;2.83;;;2.45;;
65279;SDS011;51878;55.748;48.742;2023-12-20T15:51:29;3.33;;;2.83;;
65279;SDS011;51878;55.748;48.742;2023-12-20T15:56:32;4.78;;;3.25;;
65279;SDS011;51878;55.748;48.742;2023-12-20T16:01:35;2.40;;;2.10;;
65279;SDS011;51878;55.748;48.742;2023-12-20T16:06:37;2.97;;;2.47;;
65279;SDS011;51878;55.748;48.742;2023-12-20T16:11:40;3.00;;;2.38;;
65279;SDS011;51878;55.748;48.742;2023-12-20T16:16:44;5.60;;;3.28;;
65279;SDS011;51878;55.748;48.742;2023-12-20T16:21:46;4.35;;;3.10;;
65279;SDS011;51878;55.748;48.742;2023-12-20T16:26:49;2.85;;;2.28;;
65279;SDS011;51878;55.748;48.742;2023-12-20T16:31:51;4.72;;;2.72;;
65279;SDS011;51878;55.748;48.742;2023-12-20T16:36:54;3.50;;;2.83;;
65279;SDS011;51878;55.748;48.742;2023-12-20T16:41:57;5.88;;;2.67;;
65279;SDS011;51878;55.748;48.742;2023-12-20T16:46:59;4.35;;;3.20;;
65279;SDS011;51878;55.748;48.742;2023-12-20T16:52:01;3.35;;;2.80;;
65279;SDS011;51878;55.748;48.742;2023-12-20T16:57:06;2.22;;;2.03;;
65279;SDS011;51878;55.748;48.742;2023-12-20T17:02:08;3.90;;;2.72;;
65279;SDS011;51878;55.748;48.742;2023-12-20T17:07:11;4.68;;;3.05;;
65279;SDS011;51878;55.748;48.742;2023-12-20T17:12:13;3.08;;;2.78;;
65279;SDS011;51878;55.748;48.742;2023-12-20T17:17:16;3.95;;;2.97;;
65279;SDS011;51878;55.748;48.742;2023-12-20T17:22:18;3.15;;;2.67;;
65279;SDS011;51878;55.748;48.742;2023-12-20T17:27:20;3.45;;;2.97;;
65279;SDS011;51878;55.748;48.742;2023-12-20T17:32:27;4.35;;;2.80;;
65279;SDS011;51878;55.748;48.742;2023-12-20T17:37:29;5.50;;;3.10;;
65279;SDS011;51878;55.748;48.742;2023-12-20T17:42:31;5.18;;;3.30;;
65279;SDS011;51878;55.748;48.742;2023-12-20T17:47:33;3.78;;;2.40;;
65279;SDS011;51878;55.748;48.742;2023-12-20T17:52:35;2.40;;;2.20;;
65279;SDS011;51878;55.748;48.742;2023-12-20T17:57:38;3.40;;;2.65;;
65279;SDS011;51878;55.748;48.742;2023-12-20T18:02:40;4.50;;;2.55;;
65279;SDS011;51878;55.748;48.742;2023-12-20T18:07:42;2.95;;;2.65;;
65279;SDS011;51878;55.748;48.742;2023-12-20T18:12:48;4.13;;;3.22;;
65279;SDS011;51878;55.748;48.742;2023-12-20T18:17:50;3.45;;;2.40;;
65279;SDS011;51878;55.748;48.742;2023-12-20T18:22:53;4.57;;;2.17;;
65279;SDS011;51878;55.748;48.742;2023-12-20T18:27:55;4.18;;;3.35;;
65279;SDS011;51878;55.748;48.742;2023-12-20T18:32:58;3.55;;;2.88;;
65279;SDS011;51878;55.748;48.742;2023-12-20T18:38:00;6.90;;;2.95;;
65279;SDS011;51878;55.748;48.742;2023-12-20T18:43:02;3.78;;;2.80;;
65279;SDS011;51878;55.748;48.742;2023-12-20T18:48:05;3.75;;;2.92;;
65279;SDS011;51878;55.748;48.742;2023-12-20T18:53:08;3.03;;;2.17;;
65279;SDS011;51878;55.748;48.742;2023-12-20T18:58:10;2.72;;;2.47;;
65279;SDS011;51878;55.748;48.742;2023-12-20T19:03:15;4.60;;;3.05;;
65279;SDS011;51878;55.748;48.742;2023-12-20T19:08:17;3.17;;;2.78;;
65279;SDS011;51878;55.748;48.742;2023-12-20T19:13:20;3.00;;;2.60;;
65279;SDS011;51878;55.748;48.742;2023-12-20T19:18:22;3.33;;;2.50;;
65279;SDS011;51878;55.748;48.742;2023-12-20T19:23:24;4.10;;;3.10;;
65279;SDS011;51878;55.748;48.742;2023-12-20T19:28:27;2.42;;;2.05;;
65279;SDS011;51878;55.748;48.742;2023-12-20T19:33:40;2.13;;;1.92;;
65279;SDS011;51878;55.748;48.742;2023-12-20T19:38:43;2.35;;;1.73;;
65279;SDS011;51878;55.748;48.742;2023-12-20T19:43:46;4.63;;;2.92;;
65279;SDS011;51878;55.748;48.742;2023-12-20T19:48:49;3.90;;;2.92;;
65279;SDS011;51878;55.748;48.742;2023-12-20T19:53:53;4.45;;;3.03;;
65279;SDS011;51878;55.748;48.742;2023-12-20T19:58:55;3.88;;;2.90;;
65279;SDS011;51878;55.748;48.742;2023-12-20T20:03:57;2.70;;;2.20;;
65279;SDS011;51878;55.748;48.742;2023-12-20T20:08:59;4.35;;;3.10;;
65279;SDS011;51878;55.748;48.742;2023-12-20T20:14:04;3.67;;;3.00;;
65279;SDS011;51878;55.748;48.742;2023-12-20T20:19:06;3.30;;;3.00;;
65279;SDS011;51878;55.748;48.742;2023-12-20T20:24:09;3.55;;;2.50;;
65279;SDS011;51878;55.748;48.742;2023-12-20T20:29:11;3.17;;;1.77;;
65279;SDS011;51878;55.748;48.742;2023-12-20T20:34:13;1.70;;;1.60;;
65279;SDS011;51878;55.748;48.742;2023-12-20T20:39:16;2.67;;;2.35;;
65279;SDS011;51878;55.748;48.742;2023-12-20T20:44:20;2.60;;;2.20;;
65279;SDS011;51878;55.748;48.742;2023-12-20T20:49:22;3.25;;;2.40;;
65279;SDS011;51878;55.748;48.742;2023-12-20T20:54:26;2.28;;;2.00;;
65279;SDS011;51878;55.748;48.742;2023-12-20T20:59:28;2.20;;;1.63;;
65279;SDS011;51878;55.748;48.742;2023-12-20T21:04:30;4.25;;;2.53;;
65279;SDS011;51878;55.748;48.742;2023-12-20T21:09:33;4.43;;;3.30;;
65279;SDS011;51878;55.748;48.742;2023-12-20T21:14:35;5.32;;;3.03;;
65279;SDS011;51878;55.748;48.742;2023-12-20T21:19:37;3.53;;;2.88;;
65279;SDS011;51878;55.748;48.742;2023-12-20T21:24:40;4.85;;;3.55;;
65279;SDS011;51878;55.748;48.742;2023-12-20T21:29:42;3.50;;;2.97;;
65279;SDS011;51878;55.748;48.742;2023-12-20T21:34:44;3.38;;;2.50;;
65279;SDS011;51878;55.748;48.742;2023-12-20T21:39:46;4.32;;;3.30;;
65279;SDS011;51878;55.748;48.742;2023-12-20T21:44:48;3.42;;;3.13;;
65279;SDS011;51878;55.748;48.742;2023-12-20T21:49:51;4.30;;;3.35;;
65279;SDS011;51878;55.748;48.742;2023-12-20T21:54:53;5.90;;;3.80;;
65279;SDS011;51878;55.748;48.742;2023-12-20T21:59:55;6.28;;;4.07;;
65279;SDS011;51878;55.748;48.742;2023-12-20T22:04:57;4.20;;;3.50;;
65279;SDS011;51878;55.748;48.742;2023-12-20T22:10:01;4.00;;;3.60;;
65279;SDS011;51878;55.748;48.742;2023-12-20T22:15:04;4.13;;;3.50;;
65279;SDS011;51878;55.748;48.742;2023-12-20T22:20:07;3.75;;;3.10;;
65279;SDS011;51878;55.748;48.742;2023-12-20T22:25:11;4.38;;;3.20;;
65279;SDS011;51878;55.748;48.742;2023-12-20T22:30:13;3.88;;;2.75;;
65279;SDS011;51878;55.748;48.742;2023-12-20T22:35:15;6.65;;;4.65;;
65279;SDS011;51878;55.748;48.742;2023-12-20T22:40:18;5.45;;;4.10;;
65279;SDS011;51878;55.748;48.742;2023-12-20T22:45:20;5.38;;;4.32;;
65279;SDS011;51878;55.748;48.742;2023-12-20T22:50:23;6.40;;;4.22;;
65279;SDS011;51878;55.748;48.742;2023-12-20T22:55:25;4.82;;;3.85;;
65279;SDS011;51878;55.748;48.742;2023-12-20T23:00:27;6.05;;;4.18;;
65279;SDS011;51878;55.748;48.742;2023-12-20T23:05:29;3.63;;;2.85;;
65279;SDS011;51878;55.748;48.742;2023-12-20T23:10:32;4.30;;;3.75;;
65279;SDS011;51878;55.748;48.742;2023-12-20T23:15:36;3.63;;;2.63;;
65279;SDS011;51878;55.748;48.742;2023-12-20T23:20:38;3.20;;;2.58;;
65279;SDS011;51878;55.748;48.742;2023-12-20T23:25:40;2.97;;;2.47;;
65279;SDS011;51878;55.748;48.742;2023-12-20T23:30:43;3.22;;;2.78;;
65279;SDS011;51878;55.748;48.742;2023-12-20T23:35:45;5.32;;;3.17;;
65279;SDS011;51878;55.748;48.742;2023-12-20T23:40:47;6.47;;;2.65;;
65279;SDS011;51878;55.748;48.742;2023-12-20T23:45:49;3.35;;;2.80;;
65279;SDS011;51878;55.748;48.742;2023-12-20T23:50:52;3.33;;;2.90;;
65279;SDS011;51878;55.748;48.742;2023-12-20T23:55:54;5.35;;;3.28;;
